Time;durP1;ratioP1;P1;durP2;ratioP2;P2;SDS_P1;SDS_P2;PMS_P1;PMS_P2;Temp;Humidity;BMP_temperature;BMP_pressure;BME280_temperature;BME280_humidity;BME280_pressure;Samples;Min_cycle;Max_cycle;Signal;HPM_P1;HPM_P2
2021/12/16 00:09:01;;;;;;;35.15;20.52;;;;;;;5.76;82.42;101963.09;5052985;28;20669;-78
2021/12/16 00:30:24;;;;;;;43.55;23.52;;;;;;;4.96;87.71;101938.97;5054283;28;20222;-79
2021/12/16 00:33:12;;;;;;;47.90;22.73;;;;;;;5.06;88.33;101957.25;5054007;28;20170;-79
2021/12/16 00:35:39;;;;;;;48.88;24.05;;;;;;;5.11;87.76;101962.94;5054021;28;20183;-78
2021/12/16 00:38:05;;;;;;;46.08;24.40;;;;;;;4.80;87.77;101923.31;5053831;28;20168;-79
2021/12/16 00:40:30;;;;;;;47.13;23.43;;;;;;;5.00;88.55;101970.75;5053838;28;20172;-79
2021/12/16 00:43:12;;;;;;;44.47;22.48;;;;;;;5.05;87.36;101968.13;5053809;28;20183;-80
2021/12/16 00:48:25;;;;;;;48.37;22.40;;;;;;;4.99;88.09;101966.41;5053699;28;20175;-80
2021/12/16 00:56:11;;;;;;;48.92;22.25;;;;;;;4.81;88.39;101958.13;5053784;28;20166;-79
2021/12/16 00:58:45;;;;;;;38.95;20.63;;;;;;;4.74;88.32;101955.50;5054470;28;20188;-78
2021/12/16 01:03:51;;;;;;;44.23;20.90;;;;;;;4.76;88.82;101966.75;5054969;28;20263;-80
2021/12/16 01:34:04;;;;;;;41.80;20.17;;;;;;;4.39;86.81;101938.97;5049770;28;20673;-80
2021/12/16 01:49:50;;;;;;;37.42;19.27;;;;;;;4.45;86.34;101938.84;5052573;28;20199;-79
2021/12/16 01:55:11;;;;;;;40.80;19.37;;;;;;;4.40;85.90;101938.25;5052545;28;20163;-79
2021/12/16 01:57:44;;;;;;;39.80;20.13;;;;;;;4.36;85.90;101935.06;5052337;28;20180;-78
2021/12/16 02:00:17;;;;;;;35.17;18.20;;;;;;;4.25;86.04;101917.50;5052631;28;20518;-79
2021/12/16 02:02:48;;;;;;;36.38;18.90;;;;;;;4.35;86.01;101933.25;5051023;28;20697;-79
2021/12/16 02:10:34;;;;;;;43.30;20.67;;;;;;;4.26;86.50;101927.84;5052341;28;20290;-78
2021/12/16 02:37:34;;;;;;;40.80;18.43;;;;;;;4.25;86.54;101933.63;5051693;28;20221;-79
2021/12/16 02:40:01;;;;;;;40.80;19.42;;;;;;;4.25;86.44;101938.72;5050368;28;20171;-80
2021/12/16 02:42:37;;;;;;;36.10;18.20;;;;;;;4.19;86.68;101935.34;5051571;28;20642;-78
2021/12/16 02:50:24;;;;;;;39.77;18.60;;;;;;;4.01;86.46;101915.06;5051455;28;20229;-78
2021/12/16 02:52:50;;;;;;;37.30;17.67;;;;;;;4.08;86.69;101927.88;5051386;28;20282;-78
2021/12/16 02:55:18;;;;;;;37.33;18.13;;;;;;;3.80;86.22;101872.47;5051833;28;20175;-78
2021/12/16 02:57:46;;;;;;;38.63;18.80;;;;;;;3.85;86.34;101901.91;5051370;28;20254;-78
2021/12/16 03:00:14;;;;;;;37.93;18.43;;;;;;;3.92;86.72;101912.19;5051238;28;20175;-79
2021/12/16 03:02:42;;;;;;;39.50;18.63;;;;;;;3.91;87.04;101917.97;5051440;28;20527;-78
2021/12/16 03:05:09;;;;;;;39.43;17.97;;;;;;;3.93;88.04;101926.72;5051177;28;20175;-79
2021/12/16 03:07:35;;;;;;;40.27;19.70;;;;;;;3.86;88.24;101917.34;5051369;28;20534;-79
2021/12/16 03:15:21;;;;;;;41.23;19.13;;;;;;;3.96;87.91;101922.06;5050080;28;20588;-79
2021/12/16 03:18:05;;;;;;;48.40;20.60;;;;;;;3.86;87.54;101916.41;5051206;28;20167;-78
2021/12/16 03:20:45;;;;;;;40.87;20.23;;;;;;;4.02;87.94;101921.97;5051008;28;20190;-77
2021/12/16 03:23:30;;;;;;;35.27;16.80;;;;;;;3.96;86.46;101928.72;5051193;28;20170;-78
2021/12/16 03:31:36;;;;;;;36.97;17.60;;;;;;;3.92;87.58;101925.81;5051043;28;20646;-79
2021/12/16 03:37:12;;;;;;;37.00;18.07;;;;;;;3.72;88.25;101917.06;5050970;28;20158;-78
2021/12/16 03:39:59;;;;;;;34.63;16.97;;;;;;;3.80;86.89;101923.19;5051344;28;20256;-79
2021/12/16 03:42:33;;;;;;;38.90;18.20;;;;;;;3.74;87.47;101928.34;5052527;28;20182;-77
2021/12/16 03:46:25;;;;;;;38.07;17.30;;;;;;;3.71;87.32;101925.41;5055557;28;20171;-78
2021/12/16 03:47:56;;;;;;;39.63;18.10;;;;;;;3.58;86.68;101899.97;5054932;28;20666;-78
2021/12/16 03:50:21;;;;;;;40.37;18.07;;;;;;;3.66;85.95;101923.81;5054075;28;20242;-79
2021/12/16 03:52:49;;;;;;;35.53;17.23;;;;;;;3.75;87.10;101935.25;5054989;28;20284;-78
2021/12/16 03:55:15;;;;;;;33.87;16.27;;;;;;;3.70;86.42;101931.16;5055541;28;20232;-78
2021/12/16 03:57:42;;;;;;;36.13;16.83;;;;;;;3.68;86.51;101936.00;5056136;28;20297;-78
2021/12/16 04:00:13;;;;;;;36.23;17.53;;;;;;;3.62;85.81;101930.09;5055329;28;20175;-79
2021/12/16 04:02:39;;;;;;;38.20;17.70;;;;;;;3.29;86.07;101882.34;5055383;28;20181;-78
2021/12/16 04:05:07;;;;;;;39.07;18.33;;;;;;;3.54;86.37;101942.41;5055653;28;20254;-78
2021/12/16 04:07:35;;;;;;;32.43;17.13;;;;;;;3.45;86.57;101932.81;5054893;28;20187;-78
2021/12/16 04:10:03;;;;;;;33.80;16.53;;;;;;;3.51;86.46;101935.28;5054461;28;20223;-79
2021/12/16 04:12:29;;;;;;;33.37;17.13;;;;;;;3.43;85.69;101928.25;5054268;28;20183;-77
2021/12/16 04:14:58;;;;;;;34.70;17.87;;;;;;;3.42;86.10;101929.84;5054526;28;20183;-79
2021/12/16 04:17:26;;;;;;;39.87;17.90;;;;;;;3.23;86.58;101911.19;5054830;28;20175;-79
2021/12/16 04:19:53;;;;;;;41.40;18.93;;;;;;;3.20;86.40;101895.56;5054708;28;20183;-79
2021/12/16 04:22:28;;;;;;;37.80;19.67;;;;;;;3.44;86.43;101932.63;5054384;28;20181;-78
2021/12/16 04:24:56;;;;;;;45.10;19.10;;;;;;;3.33;85.71;101933.63;5054249;28;20167;-78
2021/12/16 04:27:23;;;;;;;39.70;19.60;;;;;;;3.32;86.95;101929.28;5055194;28;20193;-78
2021/12/16 04:29:48;;;;;;;35.73;18.80;;;;;;;3.32;86.59;101928.38;5054829;28;20203;-79
2021/12/16 04:32:16;;;;;;;40.10;19.07;;;;;;;3.31;87.59;101932.53;5055217;28;20182;-79
2021/12/16 04:34:44;;;;;;;43.03;21.00;;;;;;;3.35;86.79;101928.81;5055308;28;20183;-79
2021/12/16 04:37:10;;;;;;;33.50;18.17;;;;;;;3.30;86.52;101922.16;5055373;28;20262;-78
2021/12/16 04:39:38;;;;;;;37.43;19.03;;;;;;;3.29;85.81;101922.88;5055882;28;20256;-79
2021/12/16 04:42:05;;;;;;;38.00;18.97;;;;;;;3.22;86.09;101921.13;5054588;28;20634;-77
2021/12/16 04:44:32;;;;;;;33.40;17.33;;;;;;;3.19;86.77;101914.00;5054260;28;20171;-79
2021/12/16 04:47:00;;;;;;;38.53;18.23;;;;;;;3.20;86.82;101918.34;5054394;28;20186;-79
2021/12/16 04:49:26;;;;;;;33.13;16.60;;;;;;;3.08;86.23;101928.38;5054251;28;20206;-79
2021/12/16 04:51:57;;;;;;;36.20;17.57;;;;;;;2.99;87.23;101926.41;5040444;28;20200;-80
2021/12/16 04:54:24;;;;;;;39.07;18.40;;;;;;;2.95;87.48;101928.28;5033553;28;20263;-78
2021/12/16 04:56:52;;;;;;;43.57;20.37;;;;;;;2.89;87.51;101919.81;5033135;28;20176;-79
2021/12/16 04:59:23;;;;;;;40.20;19.47;;;;;;;2.93;88.27;101934.78;5031175;28;20577;-78
2021/12/16 05:01:54;;;;;;;42.37;19.83;;;;;;;2.86;87.96;101932.97;5031577;28;20730;-79
2021/12/16 05:04:19;;;;;;;42.30;20.03;;;;;;;2.94;86.86;101934.97;5031623;28;20171;-78
2021/12/16 05:06:45;;;;;;;45.63;22.47;;;;;;;2.95;86.35;101929.19;5031825;28;20169;-78
2021/12/16 05:09:15;;;;;;;44.00;20.53;;;;;;;2.96;86.40;101930.09;5031179;28;20974;-80
2021/12/16 05:11:41;;;;;;;43.53;20.90;;;;;;;2.76;86.83;101925.69;5031700;28;20241;-77
2021/12/16 05:14:07;;;;;;;42.43;20.40;;;;;;;2.95;87.20;101949.44;5032123;28;20262;-80
2021/12/16 05:16:34;;;;;;;45.60;20.80;;;;;;;2.52;86.45;101869.06;5033381;28;20258;-79
2021/12/16 05:18:59;;;;;;;42.37;20.43;;;;;;;2.95;86.50;101949.44;5033538;28;20272;-79
2021/12/16 05:21:54;;;;;;;52.00;20.13;;;;;;;3.03;86.35;101950.56;5033217;28;20719;-80
2021/12/16 05:24:27;;;;;;;43.87;20.57;;;;;;;3.04;85.48;101946.41;5032886;28;20196;-80
2021/12/16 05:27:02;;;;;;;43.07;20.77;;;;;;;2.92;85.44;101959.16;5033504;28;20160;-80
2021/12/16 05:29:27;;;;;;;41.07;20.23;;;;;;;2.90;86.07;101947.91;5032857;28;20187;-81
2021/12/16 05:31:54;;;;;;;41.07;19.67;;;;;;;3.03;85.85;101960.69;5033153;28;20183;-78
2021/12/16 05:34:20;;;;;;;40.70;20.33;;;;;;;3.01;86.14;101952.84;5033298;28;20180;-82
2021/12/16 05:36:46;;;;;;;43.10;19.53;;;;;;;2.97;85.91;101960.72;5033257;28;20245;-81
2021/12/16 05:39:14;;;;;;;40.33;18.77;;;;;;;2.68;86.10;101907.56;5032055;28;20667;-81
2021/12/16 05:41:40;;;;;;;34.80;17.43;;;;;;;3.26;91.77;101960.44;5053951;28;20232;-89
2021/12/16 05:44:06;;;;;;;43.23;19.77;;;;;;;3.72;95.59;101956.72;5057071;28;20180;-85
2021/12/16 05:46:32;;;;;;;42.47;21.03;;;;;;;3.80;84.95;101948.53;5050294;28;20223;-89
2021/12/16 05:48:59;;;;;;;48.37;19.43;;;;;;;3.85;84.38;101956.06;5054145;28;20187;-91
2021/12/16 05:51:31;;;;;;;42.57;19.07;;;;;;;3.92;83.13;101953.69;5047847;28;20195;-90
2021/12/16 05:53:59;;;;;;;46.37;21.43;;;;;;;3.80;83.08;101931.72;5047139;28;20160;-90
2021/12/16 05:56:24;;;;;;;42.47;20.30;;;;;;;4.03;82.01;101957.69;5048406;28;20168;-90
2021/12/16 05:58:50;;;;;;;41.53;19.50;;;;;;;4.20;85.58;101954.91;5037101;28;20242;-91
2021/12/16 06:01:26;;;;;;;42.80;20.13;;;;;;;4.20;78.53;101947.31;5032717;28;20195;-82
2021/12/16 06:03:52;;;;;;;39.17;19.87;;;;;;;4.21;78.69;101959.31;5032682;28;20191;-81
2021/12/16 06:06:18;;;;;;;40.90;20.47;;;;;;;4.13;78.82;101962.41;5032915;28;20184;-82
2021/12/16 06:08:45;;;;;;;41.20;19.70;;;;;;;3.85;78.03;101958.63;5032058;28;20258;-81
2021/12/16 06:11:18;;;;;;;38.37;19.20;;;;;;;3.85;78.85;101975.44;5032707;28;20216;-79
2021/12/16 06:14:06;;;;;;;43.97;20.33;;;;;;;3.54;79.82;101943.31;5032030;28;20183;-80
2021/12/16 06:27:34;;;;;;;45.27;21.43;;;;;;;3.21;82.07;101944.63;5032480;28;20178;-80
2021/12/16 06:30:00;;;;;;;47.97;22.00;;;;;;;3.36;82.21;101974.59;5032259;28;20207;-81
2021/12/16 06:32:26;;;;;;;42.73;20.60;;;;;;;3.35;82.60;101975.31;5031764;28;20262;-81
2021/12/16 06:34:53;;;;;;;39.33;19.37;;;;;;;3.32;83.00;101963.84;5032240;28;20188;-81
2021/12/16 06:37:18;;;;;;;48.23;21.67;;;;;;;2.53;83.23;101832.97;5032343;28;20191;-81
2021/12/16 06:39:44;;;;;;;46.33;21.50;;;;;;;3.21;83.45;101953.13;5032243;28;20557;-80
2021/12/16 06:42:11;;;;;;;46.57;21.73;;;;;;;3.24;83.71;101961.16;5032189;28;20172;-79
2021/12/16 06:44:46;;;;;;;46.17;21.40;;;;;;;3.21;84.23;101962.34;5031880;28;20188;-80
2021/12/16 06:47:18;;;;;;;42.47;20.37;;;;;;;3.15;83.37;101958.97;5032252;28;20180;-79
2021/12/16 06:49:46;;;;;;;45.40;20.33;;;;;;;3.09;84.71;101970.75;5032547;28;20200;-80
2021/12/16 06:52:15;;;;;;;46.00;21.50;;;;;;;3.10;85.44;101983.63;5032216;28;20653;-80
2021/12/16 06:55:08;;;;;;;48.77;22.37;;;;;;;3.12;85.34;101981.31;5032617;28;20632;-81
2021/12/16 07:00:15;;;;;;;40.10;19.33;;;;;;;3.22;85.94;101985.34;5033876;28;20254;-81
2021/12/16 07:03:03;;;;;;;58.63;20.37;;;;;;;3.24;86.09;101993.19;5032546;28;20192;-81
2021/12/16 07:05:38;;;;;;;46.53;21.13;;;;;;;3.23;86.27;101996.41;5031631;28;20210;-82
2021/12/16 07:08:11;;;;;;;45.37;21.97;;;;;;;3.23;86.47;102004.00;5032232;28;20168;-81
2021/12/16 07:10:37;;;;;;;46.70;21.53;;;;;;;3.19;86.72;101986.53;5033431;28;20199;-80
2021/12/16 07:13:07;;;;;;;52.43;23.43;;;;;;;3.32;86.45;102009.44;5032410;28;20179;-82
2021/12/16 07:15:35;;;;;;;51.33;22.43;;;;;;;3.40;87.62;102004.75;5031801;28;20163;-81
2021/12/16 07:18:01;;;;;;;49.63;24.83;;;;;;;3.44;87.68;102001.03;5030821;28;20168;-80
2021/12/16 07:20:32;;;;;;;54.93;23.27;;;;;;;3.43;87.78;102004.28;5031724;28;20182;-80
2021/12/16 07:22:59;;;;;;;61.60;28.90;;;;;;;3.43;87.24;102005.19;5031517;28;20198;-79
2021/12/16 07:25:25;;;;;;;66.33;26.73;;;;;;;3.28;87.45;101981.88;5031098;28;20168;-80
2021/12/16 07:27:51;;;;;;;66.30;26.17;;;;;;;3.19;87.86;101978.94;5031492;28;20172;-80
2021/12/16 07:30:20;;;;;;;60.40;25.27;;;;;;;3.37;87.54;102014.47;5031098;28;20200;-80
2021/12/16 07:32:46;;;;;;;56.60;24.57;;;;;;;3.30;86.40;102004.16;5031045;28;20195;-80
2021/12/16 07:35:15;;;;;;;54.60;24.87;;;;;;;3.34;86.15;102024.16;5031191;28;20656;-81
2021/12/16 07:37:40;;;;;;;54.33;22.77;;;;;;;3.35;86.71;102020.00;5031277;28;20609;-81
2021/12/16 07:40:11;;;;;;;53.63;23.70;;;;;;;3.18;86.76;102023.63;5031275;28;20176;-80
2021/12/16 07:45:44;;;;;;;62.00;24.63;;;;;;;2.76;89.22;101988.06;4998828;28;20192;-80
2021/12/16 07:48:13;;;;;;;55.83;23.57;;;;;;;2.85;90.01;102002.03;5031183;28;20163;-80
2021/12/16 07:50:42;;;;;;;57.97;25.10;;;;;;;2.80;90.72;102007.13;5031074;28;20251;-80
2021/12/16 07:53:07;;;;;;;60.23;22.90;;;;;;;2.69;92.30;102003.06;5031116;28;20198;-80
2021/12/16 07:55:34;;;;;;;68.60;26.87;;;;;;;2.51;93.85;101982.00;5030833;28;20215;-79
2021/12/16 07:58:00;;;;;;;61.03;23.00;;;;;;;2.53;95.09;101978.09;5030717;28;20291;-79
2021/12/16 08:00:32;;;;;;;68.60;23.57;;;;;;;2.58;95.92;102005.66;5030709;28;20176;-80
2021/12/16 08:02:57;;;;;;;66.90;23.40;;;;;;;2.45;96.67;101996.31;5030757;28;20620;-81
2021/12/16 08:05:25;;;;;;;65.53;23.10;;;;;;;2.20;97.49;101961.50;5031314;28;20215;-80
2021/12/16 08:07:51;;;;;;;64.63;24.00;;;;;;;2.40;98.10;102012.47;5030804;28;20176;-79
2021/12/16 08:10:20;;;;;;;59.53;23.47;;;;;;;2.32;99.80;101997.78;5030623;28;20719;-80
2021/12/16 08:12:46;;;;;;;67.60;24.23;;;;;;;2.31;99.95;101990.91;5030861;28;20263;-80
2021/12/16 08:15:14;;;;;;;74.20;25.67;;;;;;;2.20;100.00;101994.38;5030892;28;20715;-80
2021/12/16 08:17:40;;;;;;;62.43;22.73;;;;;;;2.19;100.00;101996.72;5030909;28;20199;-79
2021/12/16 08:20:07;;;;;;;61.03;24.97;;;;;;;2.12;100.00;101969.63;5029212;28;20226;-82
2021/12/16 08:22:32;;;;;;;67.77;26.77;;;;;;;2.31;100.00;102007.00;5030940;28;20188;-80
2021/12/16 08:24:58;;;;;;;73.10;26.50;;;;;;;2.26;100.00;101992.75;5030584;28;20183;-81
2021/12/16 08:27:24;;;;;;;73.67;26.23;;;;;;;2.39;100.00;101999.56;5030526;28;20176;-80
2021/12/16 08:29:49;;;;;;;68.87;26.30;;;;;;;2.50;100.00;102013.09;5032979;28;20200;-80
2021/12/16 08:32:15;;;;;;;66.23;25.40;;;;;;;2.59;100.00;102015.13;5034106;28;20466;-81
2021/12/16 08:34:43;;;;;;;60.37;24.13;;;;;;;2.56;99.51;101999.50;5034383;28;20176;-80
2021/12/16 08:37:09;;;;;;;58.00;23.23;;;;;;;2.37;98.68;101978.19;5034511;28;20657;-79
2021/12/16 08:39:37;;;;;;;64.23;23.87;;;;;;;2.48;99.65;101996.75;5034425;28;20234;-81
2021/12/16 08:42:05;;;;;;;65.90;23.97;;;;;;;2.50;99.29;101989.41;5034361;28;20184;-81
2021/12/16 08:44:31;;;;;;;69.13;26.37;;;;;;;2.62;99.93;101997.84;5033978;28;20651;-79
2021/12/16 08:47:08;;;;;;;74.10;27.23;;;;;;;2.74;99.33;101997.97;5034083;28;20528;-80
2021/12/16 08:49:34;;;;;;;75.77;29.63;;;;;;;2.60;97.89;101967.25;5034118;28;20294;-80
2021/12/16 08:52:05;;;;;;;73.67;28.53;;;;;;;2.74;98.24;101992.91;5034318;28;20282;-81
2021/12/16 08:54:30;;;;;;;82.10;29.07;;;;;;;2.71;98.41;101992.47;5033809;28;20176;-80
2021/12/16 08:56:56;;;;;;;77.53;26.43;;;;;;;2.63;97.62;101976.88;5033707;28;20172;-79
2021/12/16 08:59:24;;;;;;;76.57;26.70;;;;;;;2.64;98.22;101988.84;5033924;28;20648;-80
2021/12/16 09:01:52;;;;;;;81.77;32.33;;;;;;;2.67;98.81;102001.94;5034152;28;20183;-80
2021/12/16 09:04:22;;;;;;;62.00;24.80;;;;;;;2.57;98.69;102001.31;5034414;28;20176;-79
2021/12/16 09:06:48;;;;;;;77.33;28.33;;;;;;;2.41;98.70;101970.38;5033901;28;20231;-80
2021/12/16 09:09:15;;;;;;;78.63;29.43;;;;;;;2.58;99.05;101993.94;5033320;28;20231;-81
2021/12/16 09:11:55;;;;;;;80.53;31.33;;;;;;;2.62;99.01;101997.84;5033437;28;20271;-81
2021/12/16 09:14:21;;;;;;;92.03;32.60;;;;;;;2.67;100.00;102000.31;5033504;28;20160;-80
2021/12/16 09:16:46;;;;;;;89.30;32.37;;;;;;;2.45;98.27;101958.38;5033700;28;20176;-81
2021/12/16 09:19:12;;;;;;;84.93;31.80;;;;;;;2.54;97.79;101962.22;5033931;28;20164;-81
2021/12/16 09:21:38;;;;;;;86.83;33.33;;;;;;;2.81;97.56;102002.28;5033647;28;20689;-79
2021/12/16 09:24:06;;;;;;;79.40;29.23;;;;;;;2.65;96.49;101968.81;5033653;28;20180;-80
2021/12/16 09:26:32;;;;;;;74.67;29.73;;;;;;;2.86;97.50;101997.88;5033748;28;20184;-79
2021/12/16 09:28:57;;;;;;;77.53;32.13;;;;;;;2.91;95.41;101995.28;5033478;28;20195;-80
2021/12/16 09:31:29;;;;;;;76.00;30.43;;;;;;;2.90;94.86;101988.41;5035758;28;20718;-83
2021/12/16 09:33:56;;;;;;;88.47;33.37;;;;;;;2.23;95.47;101870.00;5033562;28;20651;-80
2021/12/16 09:36:25;;;;;;;73.33;31.40;;;;;;;2.86;95.57;101992.81;5033920;28;20176;-80
2021/12/16 09:38:52;;;;;;;62.50;27.07;;;;;;;2.86;94.32;101990.28;5033221;28;20690;-80
2021/12/16 09:41:18;;;;;;;73.00;28.10;;;;;;;2.79;93.71;101991.03;5033790;28;20274;-79
2021/12/16 09:43:48;;;;;;;72.37;29.83;;;;;;;2.74;93.64;101985.31;5034376;28;20198;-80
2021/12/16 09:46:18;;;;;;;70.80;28.67;;;;;;;2.72;94.16;101994.28;5034967;28;20186;-80
2021/12/16 09:48:45;;;;;;;77.83;30.23;;;;;;;2.49;94.59;101958.13;5034034;28;20644;-80
2021/12/16 09:51:16;;;;;;;66.07;27.87;;;;;;;2.78;94.39;101985.06;5035224;28;20241;-79
2021/12/16 09:53:43;;;;;;;74.20;28.10;;;;;;;2.67;95.48;101987.66;5033999;28;20203;-80
2021/12/16 09:56:10;;;;;;;75.70;27.90;;;;;;;2.70;97.10;101992.25;5034399;28;20184;-81
2021/12/16 09:58:42;;;;;;;69.27;24.90;;;;;;;2.73;97.75;101993.59;5032751;28;20187;-82
2021/12/16 10:01:10;;;;;;;75.70;27.10;;;;;;;2.74;98.24;101990.38;5032641;28;20222;-80
2021/12/16 10:03:38;;;;;;;65.23;25.10;;;;;;;2.71;98.14;101984.88;5032698;28;20172;-80
2021/12/16 10:06:04;;;;;;;69.10;24.37;;;;;;;2.65;98.56;101984.00;5032209;28;20182;-81
2021/12/16 10:08:30;;;;;;;74.70;25.60;;;;;;;2.73;98.53;101974.97;5032110;28;20262;-80
2021/12/16 10:10:56;;;;;;;75.97;26.57;;;;;;;2.55;98.58;101953.00;5032043;28;20247;-79
2021/12/16 10:13:32;;;;;;;71.47;26.77;;;;;;;2.47;98.34;101925.72;5032524;28;20175;-79
2021/12/16 10:18:29;;;;;;;78.07;27.93;;;;;;;2.86;98.64;101973.47;5032379;28;20230;-80
2021/12/16 10:20:59;;;;;;;70.77;26.83;;;;;;;2.71;98.79;101945.97;5032191;28;20180;-79
2021/12/16 10:23:31;;;;;;;71.47;29.80;;;;;;;2.72;98.44;101945.28;5031939;28;20267;-81
2021/12/16 10:26:03;;;;;;;62.10;25.80;;;;;;;2.84;98.13;101957.16;5031962;28;20301;-81
2021/12/16 10:28:36;;;;;;;81.23;31.57;;;;;;;2.90;98.80;101960.56;5031790;28;20702;-81
2021/12/16 10:31:10;;;;;;;69.93;28.43;;;;;;;3.03;98.14;101960.69;5031674;28;20721;-80
2021/12/16 10:33:38;;;;;;;80.23;33.43;;;;;;;3.13;96.61;101951.13;5032093;28;20168;-80
2021/12/16 10:36:08;;;;;;;74.17;30.37;;;;;;;3.04;96.00;101942.25;5032038;28;20211;-79
2021/12/16 10:38:38;;;;;;;66.00;27.60;;;;;;;3.25;95.99;101946.88;5031899;28;20246;-80
2021/12/16 10:41:06;;;;;;;66.70;25.53;;;;;;;3.30;96.42;101950.94;5031717;28;20171;-80
2021/12/16 10:43:41;;;;;;;58.70;24.70;;;;;;;3.33;96.09;101943.78;5030649;28;20466;-80
2021/12/16 10:46:14;;;;;;;64.33;27.47;;;;;;;3.37;95.01;101935.91;5031765;28;20174;-81
2021/12/16 10:49:04;;;;;;;64.70;29.83;;;;;;;3.43;95.92;101931.72;5031711;28;20179;-80
2021/12/16 10:51:40;;;;;;;55.10;24.37;;;;;;;3.50;95.20;101940.16;5030941;28;20208;-80
2021/12/16 10:54:13;;;;;;;59.33;24.80;;;;;;;3.42;94.07;101929.84;5031719;28;20163;-80
2021/12/16 10:56:56;;;;;;;63.73;26.43;;;;;;;3.52;94.56;101936.19;5031721;28;20164;-80
2021/12/16 10:59:29;;;;;;;70.13;27.90;;;;;;;3.45;94.94;101926.84;5031277;28;20180;-81
2021/12/16 11:02:21;;;;;;;58.17;25.13;;;;;;;3.47;94.81;101933.94;5031572;28;20263;-81
2021/12/16 11:04:53;;;;;;;54.40;24.37;;;;;;;3.48;93.33;101930.72;5031583;28;20172;-80
2021/12/16 11:07:33;;;;;;;61.63;26.57;;;;;;;3.50;93.69;101935.09;5031216;28;20176;-81
2021/12/16 11:10:15;;;;;;;53.03;22.70;;;;;;;3.50;95.10;101925.88;5031115;28;20232;-82
2021/12/16 11:12:42;;;;;;;56.30;22.53;;;;;;;3.58;95.62;101934.50;5031308;28;20215;-81
2021/12/16 11:15:28;;;;;;;57.47;24.70;;;;;;;3.68;93.87;101933.47;5031351;28;20192;-80
2021/12/16 11:17:56;;;;;;;56.13;23.67;;;;;;;3.71;94.82;101930.47;5031169;28;20580;-81
2021/12/16 11:20:31;;;;;;;48.57;22.73;;;;;;;3.74;93.46;101928.34;5031433;28;20187;-80
2021/12/16 11:23:08;;;;;;;42.43;20.33;;;;;;;3.83;94.17;101926.13;5031089;28;20183;-80
2021/12/16 11:25:40;;;;;;;43.27;21.83;;;;;;;3.93;92.48;101927.63;5031378;28;20178;-80
2021/12/16 11:28:08;;;;;;;48.53;22.83;;;;;;;3.81;91.66;101912.34;5031013;28;20203;-81
2021/12/16 11:30:36;;;;;;;46.83;22.40;;;;;;;4.03;91.37;101924.72;5031095;28;20203;-81
2021/12/16 11:33:12;;;;;;;44.50;20.43;;;;;;;3.65;91.20;101848.50;5030971;28;20589;-80
2021/12/16 11:36:00;;;;;;;47.00;21.23;;;;;;;3.99;91.03;101901.25;5030886;28;20186;-80
2021/12/16 11:38:49;;;;;;;44.00;20.93;;;;;;;4.14;90.25;101911.91;5031248;28;20560;-79
2021/12/16 11:41:31;;;;;;;47.00;20.83;;;;;;;3.84;90.28;101875.66;5031089;28;20627;-81
2021/12/16 11:44:17;;;;;;;54.13;23.03;;;;;;;3.97;91.24;101905.22;5029628;28;20624;-81
2021/12/16 11:46:54;;;;;;;54.30;22.87;;;;;;;4.15;91.11;101915.34;5031166;28;20176;-81
2021/12/16 11:49:29;;;;;;;43.07;21.00;;;;;;;4.17;89.81;101913.91;5031229;28;20173;-81
2021/12/16 11:52:11;;;;;;;51.67;20.40;;;;;;;4.08;90.19;101908.53;5030746;28;20698;-80
2021/12/16 11:54:51;;;;;;;55.33;21.83;;;;;;;4.16;91.32;101913.00;5030830;28;20172;-79
2021/12/16 11:57:20;;;;;;;51.27;24.03;;;;;;;4.24;91.43;101908.06;5030716;28;20172;-80
2021/12/16 11:59:47;;;;;;;46.57;21.00;;;;;;;4.25;92.48;101907.34;5030873;28;20187;-80
2021/12/16 12:02:40;;;;;;;53.30;24.23;;;;;;;4.07;90.86;101870.25;5030883;28;20560;-80
2021/12/16 12:05:35;;;;;;;55.17;25.20;;;;;;;4.22;91.45;101904.41;5034904;28;20258;-80
2021/12/16 12:08:31;;;;;;;53.47;23.00;;;;;;;4.22;92.90;101904.41;5034330;28;20196;-80
2021/12/16 12:11:03;;;;;;;56.50;23.60;;;;;;;4.08;91.43;101905.03;5029671;28;20733;-80
2021/12/16 12:13:41;;;;;;;62.43;24.63;;;;;;;3.98;92.81;101890.19;5034558;28;20180;-80
2021/12/16 12:16:22;;;;;;;60.47;25.57;;;;;;;4.00;93.42;101886.25;5034990;28;20168;-80
2021/12/16 12:18:51;;;;;;;65.50;25.87;;;;;;;3.98;94.09;101877.50;5034857;28;20156;-79
2021/12/16 12:21:31;;;;;;;71.33;27.13;;;;;;;4.09;93.47;101890.03;5035622;28;20552;-81
2021/12/16 12:24:02;;;;;;;65.90;25.57;;;;;;;4.11;94.24;101892.78;5033624;28;20175;-81
2021/12/16 12:26:31;;;;;;;67.50;26.80;;;;;;;4.12;93.69;101876.88;5034570;28;20709;-80
2021/12/16 12:29:04;;;;;;;64.73;26.77;;;;;;;4.24;94.22;101896.28;5034385;28;20176;-81
2021/12/16 12:31:34;;;;;;;66.17;26.27;;;;;;;4.29;94.18;101890.19;5034762;28;20203;-81
2021/12/16 12:33:59;;;;;;;65.60;27.37;;;;;;;3.85;93.97;101808.09;5034504;28;20180;-81
2021/12/16 12:36:25;;;;;;;67.03;27.40;;;;;;;4.34;93.40;101884.13;5034148;28;20299;-80
2021/12/16 12:38:52;;;;;;;64.73;25.77;;;;;;;4.32;93.98;101877.00;5035034;28;20527;-80
2021/12/16 12:41:18;;;;;;;65.10;27.17;;;;;;;4.45;93.07;101885.56;5035945;28;20740;-81
2021/12/16 12:43:44;;;;;;;72.03;28.40;;;;;;;4.50;93.25;101881.13;5035521;28;20644;-81
2021/12/16 12:46:12;;;;;;;65.87;28.17;;;;;;;4.48;92.00;101862.22;5035182;28;20207;-80
2021/12/16 12:48:40;;;;;;;80.23;31.17;;;;;;;4.59;91.05;101877.28;5035428;28;20274;-83
2021/12/16 12:51:07;;;;;;;77.03;31.40;;;;;;;3.96;90.68;101762.28;5033932;28;20219;-81
2021/12/16 12:53:32;;;;;;;78.73;31.00;;;;;;;4.67;90.42;101884.25;5033185;28;20176;-82
2021/12/16 12:56:27;;;;;;;96.67;36.23;;;;;;;4.71;90.21;101886.53;5033710;28;20281;-81
2021/12/16 12:59:06;;;;;;;111.40;40.93;;;;;;;4.66;90.47;101892.59;5033506;28;20275;-83
2021/12/16 13:01:53;;;;;;;108.07;42.00;;;;;;;4.61;90.50;101894.53;5033935;28;20196;-83
2021/12/16 13:04:42;;;;;;;106.17;36.43;;;;;;;4.63;91.80;101894.72;5034562;28;20164;-82
2021/12/16 13:07:10;;;;;;;107.13;41.07;;;;;;;4.66;91.44;101886.63;5034220;28;20292;-81
2021/12/16 13:09:41;;;;;;;96.97;37.27;;;;;;;4.49;91.07;101838.69;5032332;28;20608;-82
2021/12/16 13:12:24;;;;;;;104.00;37.13;;;;;;;4.84;91.11;101895.06;5034308;28;20242;-81
2021/12/16 13:14:53;;;;;;;105.10;39.77;;;;;;;4.93;89.54;101887.75;5033478;28;20191;-80
2021/12/16 13:28:43;;;;;;;113.90;46.50;;;;;;;4.93;88.94;101882.66;5033986;28;20260;-82
2021/12/16 13:31:35;;;;;;;114.88;43.88;;;;;;;5.01;88.10;101892.19;5033182;28;20195;-79
2021/12/16 13:34:02;;;;;;;111.00;45.50;;;;;;;4.93;87.32;101871.59;5033473;28;20176;-79
2021/12/16 13:36:50;;;;;;;109.77;44.00;;;;;;;5.01;88.08;101884.56;5033167;28;20191;-81
2021/12/16 13:39:20;;;;;;;112.07;43.73;;;;;;;5.08;87.79;101886.31;5033595;28;20227;-78
2021/12/16 13:42:07;;;;;;;113.93;44.93;;;;;;;4.99;87.06;101869.88;5033328;28;20416;-79
2021/12/16 13:44:55;;;;;;;165.30;68.17;;;;;;;5.13;87.05;101884.38;5033194;28;20539;-79
2021/12/16 14:02:14;;;;;;;100.53;41.70;;;;;;;4.82;90.10;101847.31;5032090;28;20183;-80
2021/12/16 14:10:08;;;;;;;98.37;44.03;;;;;;;4.95;88.13;101858.34;5032359;28;20227;-81
2021/12/16 14:15:24;;;;;;;102.13;45.23;;;;;;;4.96;88.10;101852.59;5032889;28;20179;-79
2021/12/16 14:18:01;;;;;;;104.87;42.33;;;;;;;4.94;87.83;101855.63;5032459;28;20175;-80
2021/12/16 14:23:36;;;;;;;99.28;47.55;;;;;;;5.08;88.48;101855.84;5032364;28;20179;-79
2021/12/16 14:42:25;;;;;;;105.37;46.37;;;;;;;5.16;87.56;101854.28;5031655;28;20234;-83
2021/12/16 14:51:02;;;;;;;99.30;42.83;;;;;;;5.23;85.85;101847.69;5031539;28;20212;-83
2021/12/16 14:53:38;;;;;;;101.33;47.47;;;;;;;5.16;86.20;101839.94;5032013;28;20168;-80
2021/12/16 14:56:13;;;;;;;103.27;43.63;;;;;;;5.31;85.90;101857.19;5032009;28;20247;-82
2021/12/16 14:58:42;;;;;;;93.47;43.13;;;;;;;5.38;85.57;101861.44;5031875;28;20624;-83
2021/12/16 15:01:14;;;;;;;90.33;44.80;;;;;;;5.35;85.09;101844.91;5031652;28;20255;-83
2021/12/16 15:03:42;;;;;;;90.32;42.85;;;;;;;5.48;84.28;101855.94;5031625;28;20530;-82